MSC Emma — V7WY6 — position and weather

sailwx.info

Track history (hours):
 
Tides and Currents Weather Stations Pressure Air Temp Water Temp Dewpoint Dewpoint Depression Visibility Wind Speed Wind Dir Waves Ship Positions

MSC Emma

Last reported at 2014-Oct-05 08:28 UTC. Time now 2014-Oct-21 12:00 UTC.
Position N 26°19' W 078°50'.
Warning: this ship's position is 16 days out of date.

Length 294 m; draft 8.6 m.

Type: Ship (hazmat cat A). MMSI: 538004424.

Date/timePositionNaut miles runAvg speedWind from/ knotsBaromVisibWave heightAir tempDewpointWater temp
2014-Oct-05 08:28N 26°19' W 078°50'1 1.3
2014-Oct-05 07:33N 26°18' W 078°51'0 0.2
2014-Oct-05 06:15N 26°18' W 078°51'  
2014-Oct-02 11:05N 34°13' W 076°05'33714.9
2014-Oct-01 12:27N 39°33' W 073°53'1517.1
2014-Oct-01 11:33N 39°48' W 073°52'1716.9
2014-Oct-01 10:32N 40°05' W 073°50'2116.0
2014-Oct-01 09:14N 40°26' W 073°49'1011.8
2014-Oct-01 08:24N 40°31' W 074°00'910.1
2014-Oct-01 07:33N 40°39' W 074°06'3 3.3
2014-Oct-01 06:33N 40°41' W 074°09'0 0.0
2014-Oct-01 05:33N 40°41' W 074°09'0 0.0
2014-Oct-01 04:33N 40°41' W 074°09'0 0.0
2014-Oct-01 03:33N 40°41' W 074°09'0 0.0
2014-Oct-01 02:32N 40°41' W 074°09'0 0.0
2014-Oct-01 01:32N 40°41' W 074°09'0 0.0
2014-Oct-01 00:31N 40°41' W 074°09'0 0.0
2014-Sep-30 23:31N 40°41' W 074°09'0 0.0
2014-Sep-30 22:33N 40°41' W 074°09'0 0.0
2014-Sep-30 21:33N 40°41' W 074°09'0 0.0
2014-Sep-30 20:33N 40°41' W 074°09'0 0.0
2014-Sep-30 19:32N 40°41' W 074°09'0 0.0
2014-Sep-30 18:32N 40°41' W 074°09'0 0.0
2014-Sep-30 17:31N 40°41' W 074°09'0 0.0
2014-Sep-30 16:31N 40°41' W 074°09'1 1.2
2014-Sep-30 15:33N 40°40' W 074°08'4 4.0
2014-Sep-30 14:33N 40°39' W 074°03'8 8.4
2014-Sep-30 13:33N 40°31' W 073°59'1313.4
2014-Sep-30 12:33N 40°21' W 073°47'1817.8
2014-Sep-30 11:33N 40°04' W 073°44'1818.1
2014-Sep-30 10:33N 39°46' W 073°42'1817.6
2014-Sep-30 09:33N 39°28' W 073°47'6816.2
2014-Sep-30 05:21N 38°46' W 074°55'2613.3
2014-Sep-30 03:23N 39°08' W 075°14'1416.7
2014-Sep-30 02:33N 39°19' W 075°24'1616.2
2014-Sep-30 01:34N 39°34' W 075°33'1312.6
2014-Sep-30 00:33N 39°46' W 075°29'18 2.5
2014-Sep-29 17:29N 39°54' W 075°08'0 0.0
2014-Sep-29 15:22N 39°54' W 075°08'0 0.0
2014-Sep-29 14:33N 39°54' W 075°08'0 0.0
2014-Sep-29 11:32N 39°54' W 075°08'0 0.0
2014-Sep-29 10:32N 39°54' W 075°08'0 0.0
2014-Sep-29 09:31N 39°54' W 075°08'1 1.2
2014-Sep-29 08:33N 39°53' W 075°09'9 9.1
2014-Sep-29 07:33N 39°51' W 075°20'1212.0
2014-Sep-29 06:33N 39°42' W 075°31'1815.0
2014-Sep-29 05:23N 39°24' W 075°30'1719.6
2014-Sep-29 04:30N 39°11' W 075°16'1819.2
2014-Sep-29 03:34N 38°55' W 075°06'1212.1
2014-Sep-29 02:33N 38°45' W 074°57'1413.8
2014-Sep-29 01:33N 38°34' W 074°46'1413.9
2014-Sep-29 00:33N 38°22' W 074°38'1414.4
2014-Sep-28 23:33N 38°08' W 074°33'1414.5
2014-Sep-28 22:34N 37°53' W 074°35'1414.0
2014-Sep-28 21:33N 37°39' W 074°37'4711.5
2014-Sep-28 17:30N 36°53' W 074°44'6212.5
2014-Sep-28 12:33N 35°51' W 074°53'  
Track history (hours):
 
Tides and Currents Weather Stations Pressure Air Temp Water Temp Dewpoint Dewpoint Depression Visibility Wind Speed Wind Dir Waves Ship Positions

MSC Emma

Last reported at 2014-Oct-05 08:28 UTC. Time now 2014-Oct-21 12:00 UTC.
Position N 26°19' W 078°50'.
Warning: this ship's position is 16 days out of date.

Length 294 m; draft 8.6 m.

Type: Ship (hazmat cat A). MMSI: 538004424.

Date/timePositionNaut miles runAvg speedWind from/ knotsBaromVisibWave heightAir tempDewpointWater temp
2014-Oct-05 08:28N 26°19' W 078°50'1 1.3
2014-Oct-05 07:33N 26°18' W 078°51'0 0.2
2014-Oct-05 06:15N 26°18' W 078°51'  
2014-Oct-02 11:05N 34°13' W 076°05'33714.9
2014-Oct-01 12:27N 39°33' W 073°53'1517.1
2014-Oct-01 11:33N 39°48' W 073°52'1716.9
2014-Oct-01 10:32N 40°05' W 073°50'2116.0
2014-Oct-01 09:14N 40°26' W 073°49'1011.8
2014-Oct-01 08:24N 40°31' W 074°00'910.1
2014-Oct-01 07:33N 40°39' W 074°06'3 3.3
2014-Oct-01 06:33N 40°41' W 074°09'0 0.0
2014-Oct-01 05:33N 40°41' W 074°09'0 0.0
2014-Oct-01 04:33N 40°41' W 074°09'0 0.0
2014-Oct-01 03:33N 40°41' W 074°09'0 0.0
2014-Oct-01 02:32N 40°41' W 074°09'0 0.0
2014-Oct-01 01:32N 40°41' W 074°09'0 0.0
2014-Oct-01 00:31N 40°41' W 074°09'0 0.0
2014-Sep-30 23:31N 40°41' W 074°09'0 0.0
2014-Sep-30 22:33N 40°41' W 074°09'0 0.0
2014-Sep-30 21:33N 40°41' W 074°09'0 0.0
2014-Sep-30 20:33N 40°41' W 074°09'0 0.0
2014-Sep-30 19:32N 40°41' W 074°09'0 0.0
2014-Sep-30 18:32N 40°41' W 074°09'0 0.0
2014-Sep-30 17:31N 40°41' W 074°09'0 0.0
2014-Sep-30 16:31N 40°41' W 074°09'1 1.2
2014-Sep-30 15:33N 40°40' W 074°08'4 4.0
2014-Sep-30 14:33N 40°39' W 074°03'8 8.4
2014-Sep-30 13:33N 40°31' W 073°59'1313.4
2014-Sep-30 12:33N 40°21' W 073°47'1817.8
2014-Sep-30 11:33N 40°04' W 073°44'1818.1
2014-Sep-30 10:33N 39°46' W 073°42'1817.6
2014-Sep-30 09:33N 39°28' W 073°47'6816.2
2014-Sep-30 05:21N 38°46' W 074°55'2613.3
2014-Sep-30 03:23N 39°08' W 075°14'1416.7
2014-Sep-30 02:33N 39°19' W 075°24'1616.2
2014-Sep-30 01:34N 39°34' W 075°33'1312.6
2014-Sep-30 00:33N 39°46' W 075°29'18 2.5
2014-Sep-29 17:29N 39°54' W 075°08'0 0.0
2014-Sep-29 15:22N 39°54' W 075°08'0 0.0
2014-Sep-29 14:33N 39°54' W 075°08'0 0.0
2014-Sep-29 11:32N 39°54' W 075°08'0 0.0
2014-Sep-29 10:32N 39°54' W 075°08'0 0.0
2014-Sep-29 09:31N 39°54' W 075°08'1 1.2
2014-Sep-29 08:33N 39°53' W 075°09'9 9.1
2014-Sep-29 07:33N 39°51' W 075°20'1212.0
2014-Sep-29 06:33N 39°42' W 075°31'1815.0
2014-Sep-29 05:23N 39°24' W 075°30'1719.6
2014-Sep-29 04:30N 39°11' W 075°16'1819.2
2014-Sep-29 03:34N 38°55' W 075°06'1212.1
2014-Sep-29 02:33N 38°45' W 074°57'1413.8
2014-Sep-29 01:33N 38°34' W 074°46'1413.9
2014-Sep-29 00:33N 38°22' W 074°38'1414.4
2014-Sep-28 23:33N 38°08' W 074°33'1414.5
2014-Sep-28 22:34N 37°53' W 074°35'1414.0
2014-Sep-28 21:33N 37°39' W 074°37'4711.5
2014-Sep-28 17:30N 36°53' W 074°44'6212.5
2014-Sep-28 12:33N 35°51' W 074°53'  

Dump ship's entire track history